Last 30 Days

OV-Red Dog 6200'

Daily Data | America/Los_Angeles
as of 10/6/22 7:04 PM PDT
Date Daily Max Temp (°F) Time of Max Temp Daily Min Temp (°F) Time of Min Temp Daily Rain (In) New Snow (in) SnowDepth (in) Wind Spd (mph) Daily Max Wind (mph) Time of Max Wind Max Wind Dir (°) Max RH (%) Min RH (%) Wet Bulb (°F) WetB Hrs <28F (hrs) MinBV Day (V)
9/25/22 79.7 1429 37.4 0628 0.00 83.9 243.0 1.7 11.8 1458 N | 9 92 23 48.5 0.0 13.0
9/24/22 78.8 1608 36.4 0710 0.00 82.9 238.6 1.5 9.7 1154 SSW | 197 97 24 46.9 0.0 13.0
9/23/22 74.4 1533 33.9 0737 0.00 83.1 237.5 1.3 8.7 1320 SSE | 167 100 25 45.4 0.0 12.9
9/22/22 67.5 1509 33.1 0721 0.00 75.9 225.8 1.4 8.7 1351 SSE | 164 100 34 - 0.0 12.9
9/21/22 50.0 1021 32.0 1027 0.00 29.9 163.9 2.6 16.4 1256 NW | 325 100 - - 0.0 12.9
9/20/22 51.3 1348 42.5 0643 0.00 - 167.9 3.8 19.7 1535 NNE | 26 99 70 - 0.0 12.6
9/19/22 54.3 1356 40.7 0813 0.00 - 163.0 2.0 14.8 2303 NNW | 329 99 65 44.9 0.0 11.4
9/18/22 58.2 1417 43.7 2151 0.00 - 96.5 5.8 26.6 1137 NNE | 25 86 32 43.0 0.0 12.5
9/17/22 62.1 1353 31.8 0704 0.00 89.8 238.3 4.4 22.6 0952 NNE | 19 91 31 41.2 0.0 13.1
9/16/22 67.4 1232 33.5 0610 0.00 90.1 251.2 2.5 16.3 1227 NNE | 21 93 20 42.3 0.0 13.0
9/15/22 64.8 1405 36.0 0651 0.00 89.1 239.5 3.4 15.0 1157 NNW | 333 91 22 43.2 0.0 13.0
9/14/22 65.1 1501 39.4 0640 0.00 89.8 241.5 3.9 18.6 1401 NNW | 330 86 33 45.4 0.0 13.0
9/13/22 82.4 0523 43.4 2359 0.00 84.3 234.7 3.9 19.7 1448 NE | 35 98 28 - 0.0 12.9
9/12/22 70.0 1018 50.3 0611 0.00 - - 2.1 13.3 1414 NNW | 329 98 46 - 0.0 12.9
9/11/22 79.6 1246 51.0 0723 0.00 80.7 228.7 3.5 18.9 1334 NNW | 344 72 28 52.1 0.0 12.9
9/10/22 78.7 1347 47.4 0611 0.00 82.1 230.0 2.5 15.6 1651 NNE | 15 70 29 51.2 0.0 12.9
9/9/22 84.0 1500 50.8 0627 0.00 79.3 228.3 1.2 7.0 1643 SSW | 212 68 21 51.7 0.0 12.9
9/8/22 86.1 1331 51.1 0637 0.00 76.0 225.1 2.4 16.5 1424 N | 7 69 18 53.2 0.0 12.8
9/7/22 88.0 1333 54.5 0701 0.00 75.1 221.1 2.7 16.2 1512 NNE | 22 59 19 54.1 0.0 12.8
9/6/22 90.8 1708 52.4 0546 0.00 81.8 230.7 3.1 22.0 1330 N | 8 65 15 54.2 0.0 12.8
Max 90.8 - 54.5 - 0.00 90.1 251.2 5.8 26.6 - - 100 70 54.2 0.0 13.1
Avg - - - - - 79.6 - 2.8 - - - - - 47.8 - -
Min 50.0 - 31.8 - 0.00 29.9 96.5 1.2 7.0 - - 59 15 41.2 0.0 11.4